createdAt,value
2019-02-27T00:00:44.967Z,85.00
2019-02-27T00:03:12.351Z,85.00
2019-02-27T00:05:41.699Z,83.70
2019-02-27T00:08:09.007Z,84.70
2019-02-27T00:10:36.864Z,84.10
2019-02-27T00:13:06.409Z,84.30
2019-02-27T00:15:37.735Z,86.30
2019-02-27T00:18:03.047Z,86.70
2019-02-27T00:20:30.449Z,86.80
2019-02-27T00:22:58.143Z,89.60
2019-02-27T00:25:25.543Z,86.30
2019-02-27T00:27:52.930Z,87.90
2019-02-27T00:30:20.636Z,88.70
2019-02-27T00:32:50.988Z,91.10
2019-02-27T00:35:17.232Z,90.50
2019-02-27T00:37:44.694Z,88.60
2019-02-27T00:40:12.192Z,90.00
2019-02-27T00:42:39.608Z,88.20
2019-02-27T00:45:07.689Z,89.10
2019-02-27T00:47:35.100Z,89.30
2019-02-27T00:50:05.658Z,90.50
2019-02-27T00:52:33.744Z,90.90
2019-02-27T00:55:04.350Z,92.00
2019-02-27T00:57:30.339Z,92.70
2019-02-27T00:59:57.948Z,91.30
2019-02-27T01:02:25.349Z,91.10
2019-02-27T01:04:52.744Z,91.40
2019-02-27T01:07:20.663Z,92.10
2019-02-27T01:09:49.759Z,91.70
2019-02-27T01:12:17.655Z,93.10
2019-02-27T01:14:45.105Z,91.30
2019-02-27T01:17:12.507Z,93.40
2019-02-27T01:19:39.901Z,92.80
2019-02-27T01:22:07.331Z,95.00
2019-02-27T01:24:34.732Z,95.10
2019-02-27T01:27:04.636Z,99.90
2019-02-27T01:29:31.895Z,99.80
2019-02-27T01:31:59.299Z,99.30
2019-02-27T01:34:26.690Z,99.90
2019-02-27T01:36:54.901Z,99.90
2019-02-27T01:39:23.591Z,99.90
2019-02-27T01:41:51.002Z,99.90
2019-02-27T01:44:18.480Z,99.90
2019-02-27T01:46:45.894Z,99.90
2019-02-27T01:49:15.876Z,99.90
2019-02-27T01:51:43.035Z,99.60
2019-02-27T01:54:12.225Z,99.90
2019-02-27T01:56:39.659Z,99.90
2019-02-27T01:59:07.139Z,99.90
2019-02-27T02:01:34.536Z,99.90
2019-02-27T02:04:01.927Z,98.10
2019-02-27T02:06:32.021Z,98.50
2019-02-27T02:09:28.802Z,98.10
2019-02-27T02:11:56.391Z,96.60
2019-02-27T02:14:44.985Z,96.10
2019-02-27T02:17:28.137Z,96.90
2019-02-27T02:20:22.272Z,96.90
2019-02-27T02:23:21.955Z,94.40
2019-02-27T02:26:09.799Z,95.50
2019-02-27T02:29:15.107Z,95.20
2019-02-27T02:31:53.036Z,95.10
2019-02-27T02:34:39.732Z,95.30
2019-02-27T02:37:33.689Z,95.60
2019-02-27T02:40:34.352Z,94.80
2019-02-27T02:43:51.780Z,94.10
2019-02-27T02:46:54.052Z,94.40
2019-02-27T02:49:47.323Z,93.10
2019-02-27T02:52:26.084Z,96.20
2019-02-27T02:55:18.000Z,96.60
2019-02-27T02:58:47.279Z,96.50
2019-02-27T03:01:34.130Z,97.00
2019-02-27T03:04:53.257Z,96.10
2019-02-27T03:07:46.623Z,96.10
2019-02-27T03:10:25.429Z,95.90
2019-02-27T03:13:32.410Z,98.20
2019-02-27T03:16:17.092Z,96.90
2019-02-27T03:19:14.299Z,94.20
2019-02-27T03:22:11.041Z,99.60
2019-02-27T03:25:22.138Z,99.90
2019-02-27T03:28:46.535Z,99.90
2019-02-27T03:31:37.976Z,99.90
2019-02-27T03:34:48.212Z,99.90
2019-02-27T03:37:49.972Z,99.90
2019-02-27T03:40:57.064Z,99.90
2019-02-27T03:44:00.596Z,99.90
2019-02-27T03:47:04.826Z,99.90
2019-02-27T03:49:54.474Z,99.90
2019-02-27T03:52:42.472Z,99.90
2019-02-27T03:56:08.685Z,99.90
2019-02-27T03:59:27.098Z,99.30
2019-02-27T04:02:25.800Z,99.90
2019-02-27T04:05:46.251Z,99.90
2019-02-27T04:08:54.399Z,99.90
2019-02-27T04:11:22.375Z,99.90
2019-02-27T04:13:50.119Z,99.90
2019-02-27T04:16:17.514Z,99.90
2019-02-27T04:18:45.112Z,99.90
2019-02-27T04:21:12.518Z,99.90
2019-02-27T04:23:39.904Z,99.90
2019-02-27T04:26:07.597Z,99.90
2019-02-27T04:28:34.992Z,99.90
2019-02-27T04:31:02.394Z,99.90
2019-02-27T04:33:29.815Z,99.90
2019-02-27T04:35:57.223Z,99.90
2019-02-27T04:38:25.015Z,99.90
2019-02-27T04:40:53.905Z,99.90
2019-02-27T04:43:21.319Z,99.90
2019-02-27T04:45:48.714Z,99.90
2019-02-27T04:48:16.214Z,99.90
2019-02-27T04:50:44.133Z,99.90
2019-02-27T04:53:12.163Z,99.90
2019-02-27T04:55:39.916Z,99.90
2019-02-27T04:58:09.077Z,99.90
2019-02-27T05:00:38.439Z,99.90
2019-02-27T05:03:05.744Z,99.90
2019-02-27T05:05:33.136Z,99.90
2019-02-27T05:08:00.554Z,99.90
2019-02-27T05:10:27.962Z,99.90
2019-02-27T05:12:55.527Z,99.90
2019-02-27T05:15:23.336Z,99.90
2019-02-27T05:17:53.090Z,99.90
2019-02-27T05:20:19.994Z,99.90
2019-02-27T05:22:47.443Z,99.90
2019-02-27T05:25:15.169Z,99.90
2019-02-27T05:27:42.687Z,99.90
2019-02-27T05:30:12.319Z,99.90
2019-02-27T05:32:39.351Z,99.90
2019-02-27T05:35:06.960Z,99.90
2019-02-27T05:37:36.121Z,99.90
2019-02-27T05:40:03.970Z,99.90
2019-02-27T05:42:31.367Z,99.90
2019-02-27T05:44:58.776Z,99.90
2019-02-27T05:47:26.210Z,99.90
2019-02-27T05:49:53.615Z,99.90
2019-02-27T05:52:21.018Z,99.90
2019-02-27T05:54:48.457Z,99.90
2019-02-27T05:57:16.220Z,99.90
2019-02-27T05:59:43.585Z,99.90
2019-02-27T06:02:12.423Z,99.90
2019-02-27T06:04:41.562Z,99.90
2019-02-27T06:07:08.960Z,99.90
2019-02-27T06:09:36.392Z,99.90
2019-02-27T06:12:06.633Z,99.90
2019-02-27T06:14:33.284Z,99.90
2019-02-27T06:17:00.702Z,99.90
2019-02-27T06:19:30.573Z,99.90
2019-02-27T06:21:57.303Z,99.90
2019-02-27T06:24:24.859Z,99.90
2019-02-27T06:26:52.247Z,99.90
2019-02-27T06:29:23.273Z,99.90
2019-02-27T06:31:48.935Z,99.90
2019-02-27T06:34:16.355Z,99.90
2019-02-27T06:36:43.751Z,99.90
2019-02-27T06:39:11.186Z,99.90
2019-02-27T06:41:39.938Z,99.90
2019-02-27T06:44:07.479Z,99.90
2019-02-27T06:46:34.926Z,99.90
2019-02-27T06:49:02.319Z,99.90
2019-02-27T06:51:29.731Z,99.90
2019-02-27T06:53:57.432Z,99.90
2019-02-27T06:56:24.833Z,99.90
2019-02-27T06:58:52.230Z,99.90
2019-02-27T07:01:19.821Z,99.90
2019-02-27T07:03:47.214Z,99.90
2019-02-27T07:06:14.612Z,99.90
2019-02-27T07:08:42.394Z,99.90
2019-02-27T07:11:11.283Z,99.90
2019-02-27T07:13:38.983Z,99.90
2019-02-27T07:16:06.946Z,99.90
2019-02-27T07:18:36.390Z,99.90
2019-02-27T07:21:03.564Z,99.90
2019-02-27T07:23:31.185Z,99.90
2019-02-27T07:25:58.588Z,99.90
2019-02-27T07:28:25.991Z,99.90
2019-02-27T07:30:53.567Z,99.90
2019-02-27T07:33:41.206Z,99.90
2019-02-27T07:36:09.044Z,99.90
2019-02-27T07:38:36.487Z,99.90
2019-02-27T07:41:03.863Z,99.90
2019-02-27T07:43:31.320Z,99.90
2019-02-27T07:45:58.715Z,99.90
2019-02-27T07:48:26.130Z,99.90
2019-02-27T07:50:53.572Z,99.90
2019-02-27T07:53:20.978Z,99.90
2019-02-27T07:55:48.378Z,99.90
2019-02-27T07:58:15.847Z,99.90
2019-02-27T08:00:43.255Z,99.90
2019-02-27T08:03:13.006Z,99.90
2019-02-27T08:05:40.038Z,99.90
2019-02-27T08:08:07.438Z,99.90
2019-02-27T08:10:36.968Z,99.90
2019-02-27T08:13:04.084Z,99.90
2019-02-27T08:15:31.462Z,99.90
2019-02-27T08:17:59.061Z,99.90
2019-02-27T08:20:26.495Z,99.90
2019-02-27T08:22:53.892Z,99.90
2019-02-27T08:25:21.286Z,99.90
2019-02-27T08:27:48.738Z,99.90
2019-02-27T08:30:17.849Z,99.90
2019-02-27T08:32:45.287Z,99.90
2019-02-27T08:35:12.935Z,89.90
2019-02-27T08:37:41.062Z,87.70
2019-02-27T08:40:08.491Z,88.30
2019-02-27T08:42:37.374Z,86.40
2019-02-27T08:45:05.937Z,85.70
2019-02-27T08:47:34.691Z,84.90
2019-02-27T08:50:02.090Z,84.30
2019-02-27T08:52:29.483Z,84.30
2019-02-27T08:54:57.162Z,82.60
2019-02-27T08:57:24.565Z,84.40
2019-02-27T08:59:51.951Z,82.20
2019-02-27T09:02:19.551Z,99.90
2019-02-27T09:04:46.847Z,99.90
2019-02-27T09:07:14.252Z,99.90
2019-02-27T09:09:41.695Z,99.90
2019-02-27T09:12:13.249Z,79.00
2019-02-27T09:14:38.291Z,79.40
2019-02-27T09:17:05.746Z,78.20
2019-02-27T09:19:33.140Z,79.70
2019-02-27T09:22:02.450Z,79.20
2019-02-27T09:24:30.295Z,74.80
2019-02-27T09:26:57.694Z,75.90
2019-02-27T09:29:25.087Z,77.30
2019-02-27T09:31:52.570Z,77.20
2019-02-27T09:34:20.827Z,76.40
2019-02-27T09:36:49.184Z,76.40
2019-02-27T09:39:16.711Z,75.70
2019-02-27T09:41:46.899Z,75.00
2019-02-27T09:44:13.351Z,74.60
2019-02-27T09:46:40.780Z,75.20
2019-02-27T09:49:08.172Z,75.80
2019-02-27T09:51:35.573Z,72.30
2019-02-27T09:54:03.216Z,72.10
2019-02-27T09:56:32.745Z,72.50
2019-02-27T09:58:59.823Z,71.50
2019-02-27T10:01:29.151Z,74.30
2019-02-27T10:03:56.503Z,69.80
2019-02-27T10:06:23.898Z,71.40
2019-02-27T10:08:51.475Z,71.30
2019-02-27T10:11:20.726Z,72.80
2019-02-27T10:13:48.095Z,71.60
2019-02-27T10:16:15.532Z,71.00
2019-02-27T10:18:42.940Z,70.50
2019-02-27T10:21:12.027Z,71.30
2019-02-27T10:23:39.731Z,70.00
2019-02-27T10:26:07.355Z,70.10
2019-02-27T10:28:38.814Z,69.90
2019-02-27T10:31:04.032Z,70.30
2019-02-27T10:33:31.431Z,69.00
2019-02-27T10:36:03.349Z,69.30
2019-02-27T10:38:28.599Z,68.00
2019-02-27T10:40:55.918Z,68.50
2019-02-27T10:43:23.343Z,67.60
2019-02-27T10:45:50.743Z,67.30
2019-02-27T10:48:18.142Z,67.80
2019-02-27T10:50:45.577Z,67.00
2019-02-27T10:53:12.972Z,67.40
2019-02-27T10:55:40.376Z,67.50
2019-02-27T10:58:12.597Z,66.00
2019-02-27T11:00:37.139Z,66.70
2019-02-27T11:03:04.544Z,64.80
2019-02-27T11:05:32.706Z,65.20
2019-02-27T11:08:00.101Z,62.70
2019-02-27T11:10:27.695Z,65.00
2019-02-27T11:12:55.311Z,64.80
2019-02-27T11:15:22.707Z,66.00
2019-02-27T11:17:50.110Z,64.20
2019-02-27T11:20:21.079Z,63.70
2019-02-27T11:22:46.802Z,62.40
2019-02-27T11:25:15.719Z,62.30
2019-02-27T11:27:43.451Z,63.80
2019-02-27T11:30:13.815Z,63.20
2019-02-27T11:32:41.217Z,61.70
2019-02-27T11:35:08.882Z,62.30
2019-02-27T11:37:36.541Z,61.50
2019-02-27T11:40:05.351Z,60.40
2019-02-27T11:42:33.727Z,61.60
2019-02-27T11:45:01.150Z,59.80
2019-02-27T11:47:28.546Z,59.80
2019-02-27T11:49:55.959Z,60.60
2019-02-27T11:52:27.810Z,60.40
2019-02-27T11:54:52.580Z,60.70
2019-02-27T11:57:20.295Z,61.50
2019-02-27T11:59:47.702Z,59.60
2019-02-27T12:02:15.100Z,59.60
2019-02-27T12:04:42.771Z,58.30
2019-02-27T12:07:12.121Z,56.20
2019-02-27T12:09:39.371Z,59.00
2019-02-27T12:12:06.997Z,99.90
2019-02-27T12:14:34.383Z,58.50
2019-02-27T12:17:01.791Z,59.10
2019-02-27T12:19:29.250Z,57.40
2019-02-27T12:21:59.506Z,57.80
2019-02-27T12:24:25.922Z,57.40
2019-02-27T12:26:53.261Z,57.90
2019-02-27T12:29:20.643Z,57.20
2019-02-27T12:31:48.902Z,56.90
2019-02-27T12:34:16.417Z,56.50
2019-02-27T12:36:43.985Z,57.50
2019-02-27T12:39:15.285Z,55.90
2019-02-27T12:41:41.442Z,56.60
2019-02-27T12:44:08.854Z,55.40
2019-02-27T12:46:37.049Z,55.50
2019-02-27T12:49:06.415Z,54.80
2019-02-27T12:51:35.253Z,54.60
2019-02-27T12:54:04.135Z,55.10
2019-02-27T12:56:31.675Z,55.90
2019-02-27T12:58:59.299Z,54.30
2019-02-27T13:01:26.783Z,54.10
2019-02-27T13:03:54.356Z,54.00
2019-02-27T13:06:21.763Z,51.90
2019-02-27T13:08:52.571Z,53.10
2019-02-27T13:11:18.423Z,51.10
2019-02-27T13:13:45.826Z,52.60
2019-02-27T13:16:14.521Z,51.90
2019-02-27T13:18:42.698Z,51.30
2019-02-27T13:21:10.098Z,48.30
2019-02-27T13:23:39.011Z,49.40
2019-02-27T13:26:08.052Z,50.40
2019-02-27T13:28:35.475Z,50.70
2019-02-27T13:31:02.884Z,50.80
2019-02-27T13:33:32.963Z,49.20
2019-02-27T13:36:00.432Z,48.80
2019-02-27T13:38:28.487Z,47.80
2019-02-27T13:40:56.004Z,49.30
2019-02-27T13:43:24.389Z,49.00
2019-02-27T13:45:52.602Z,49.30
2019-02-27T13:48:20.072Z,48.30
2019-02-27T13:50:47.462Z,50.00
2019-02-27T13:53:14.871Z,49.60
2019-02-27T13:55:42.410Z,48.80
2019-02-27T13:58:09.870Z,49.00
2019-02-27T14:00:37.375Z,49.60
2019-02-27T14:03:04.829Z,50.00
2019-02-27T14:05:34.902Z,50.30
2019-02-27T14:08:01.414Z,50.60
2019-02-27T14:10:28.834Z,49.90
2019-02-27T14:12:56.234Z,47.90
2019-02-27T14:15:26.782Z,49.50
2019-02-27T14:17:53.059Z,50.50
2019-02-27T14:20:20.470Z,50.10
2019-02-27T14:22:47.858Z,48.80
2019-02-27T14:25:17.547Z,49.10
2019-02-27T14:27:47.206Z,50.00
2019-02-27T14:30:16.922Z,50.10
2019-02-27T14:32:45.040Z,49.70
2019-02-27T14:35:13.551Z,49.40
2019-02-27T14:37:41.266Z,48.70
2019-02-27T14:40:11.735Z,49.90
2019-02-27T14:42:39.122Z,50.50
2019-02-27T14:45:10.098Z,50.80
2019-02-27T14:47:37.520Z,50.80
2019-02-27T14:50:06.141Z,50.90
2019-02-27T14:52:33.541Z,50.60
2019-02-27T14:55:03.349Z,51.00
2019-02-27T14:57:30.375Z,50.80
2019-02-27T14:59:57.759Z,50.60
2019-02-27T15:02:25.196Z,51.60
2019-02-27T15:04:52.586Z,51.20
2019-02-27T15:07:22.151Z,52.50
2019-02-27T15:09:49.359Z,52.80
2019-02-27T15:12:19.529Z,53.60
2019-02-27T15:14:45.967Z,54.20
2019-02-27T15:17:13.539Z,54.30
2019-02-27T15:19:40.947Z,54.70
2019-02-27T15:22:08.343Z,55.10
2019-02-27T15:24:35.927Z,55.40
2019-02-27T15:27:03.396Z,55.80
2019-02-27T15:29:30.791Z,57.00
2019-02-27T15:31:58.210Z,56.70
2019-02-27T15:34:25.609Z,57.00
2019-02-27T15:36:53.147Z,57.10
2019-02-27T15:39:21.339Z,57.90
2019-02-27T15:41:48.775Z,57.70
2019-02-27T15:44:16.188Z,58.00
2019-02-27T15:46:43.607Z,58.10
2019-02-27T15:49:12.823Z,59.00
2019-02-27T15:51:40.191Z,59.10
2019-02-27T15:54:07.671Z,59.70
2019-02-27T15:56:34.972Z,59.60
2019-02-27T15:59:06.217Z,60.10
2019-02-27T16:01:33.091Z,60.60
2019-02-27T16:04:00.623Z,60.90
2019-02-27T16:06:28.031Z,61.40
2019-02-27T16:08:58.259Z,61.40
2019-02-27T16:11:25.881Z,61.50
2019-02-27T16:13:53.481Z,61.30
2019-02-27T16:16:23.333Z,62.30
2019-02-27T16:18:50.135Z,62.60
2019-02-27T16:21:17.543Z,63.20
2019-02-27T16:23:45.148Z,63.20
2019-02-27T16:26:12.567Z,64.00
2019-02-27T16:28:40.201Z,64.00
2019-02-27T16:31:07.743Z,64.30
2019-02-27T16:33:35.191Z,64.40
2019-02-27T16:36:03.795Z,64.90
2019-02-27T16:38:31.709Z,65.20
2019-02-27T16:41:00.923Z,64.80
2019-02-27T16:43:28.307Z,65.40
2019-02-27T16:45:55.767Z,65.10
2019-02-27T16:48:23.075Z,65.50
2019-02-27T16:50:50.504Z,65.60
2019-02-27T16:53:19.498Z,69.60
2019-02-27T16:55:48.184Z,69.20
2019-02-27T16:58:15.799Z,67.60
2019-02-27T17:00:43.349Z,67.10
2019-02-27T17:03:13.482Z,67.50
2019-02-27T17:05:40.265Z,67.60
2019-02-27T17:08:09.187Z,68.40
2019-02-27T17:10:36.599Z,67.50
2019-02-27T17:13:04.106Z,67.70
2019-02-27T17:15:35.772Z,67.70
2019-02-27T17:18:01.380Z,67.90
2019-02-27T17:20:29.032Z,68.80
2019-02-27T17:22:56.472Z,68.70
2019-02-27T17:25:28.813Z,69.10
2019-02-27T17:27:53.587Z,69.40
2019-02-27T17:30:24.391Z,69.90
2019-02-27T17:32:52.127Z,70.40
2019-02-27T17:35:20.546Z,71.10
2019-02-27T17:37:48.898Z,71.70
2019-02-27T17:40:37.495Z,70.90
2019-02-27T17:43:06.813Z,71.30
2019-02-27T17:45:34.391Z,71.60
2019-02-27T17:48:01.803Z,72.20
2019-02-27T17:50:31.836Z,71.90
2019-02-27T17:52:58.459Z,72.20
2019-02-27T17:55:25.859Z,72.40
2019-02-27T17:57:57.712Z,72.90
2019-02-27T18:00:28.568Z,72.60
2019-02-27T18:02:56.130Z,71.60
2019-02-27T18:05:25.347Z,73.40
2019-02-27T18:07:53.568Z,73.70
2019-02-27T18:10:21.325Z,72.70
2019-02-27T18:12:48.735Z,72.10
2019-02-27T18:15:19.851Z,74.20
2019-02-27T18:17:45.927Z,73.90
2019-02-27T18:20:13.708Z,72.90
2019-02-27T18:22:41.211Z,75.40
2019-02-27T18:25:09.443Z,75.30
2019-02-27T18:27:36.849Z,76.70
2019-02-27T18:30:06.376Z,76.60
2019-02-27T18:32:33.918Z,76.40
2019-02-27T18:35:01.350Z,76.40
2019-02-27T18:37:29.699Z,75.90
2019-02-27T18:39:57.332Z,76.90
2019-02-27T18:42:24.955Z,76.40
2019-02-27T18:44:52.574Z,76.70
2019-02-27T18:47:20.012Z,77.00
2019-02-27T18:49:49.024Z,76.20
2019-02-27T18:52:21.420Z,76.90
2019-02-27T18:54:46.304Z,76.90
2019-02-27T18:57:13.775Z,78.00
2019-02-27T18:59:41.176Z,74.40
2019-02-27T19:02:08.633Z,75.90
2019-02-27T19:04:36.034Z,76.80
2019-02-27T19:07:03.841Z,77.30
2019-02-27T19:09:32.446Z,76.80
2019-02-27T19:12:00.595Z,77.40
2019-02-27T19:14:27.976Z,77.40
2019-02-27T19:16:55.937Z,77.70
2019-02-27T19:19:23.462Z,76.20
2019-02-27T19:21:50.985Z,77.90
2019-02-27T19:24:18.456Z,78.10
2019-02-27T19:26:45.877Z,78.40
2019-02-27T19:29:13.267Z,78.70
2019-02-27T19:31:40.781Z,78.70
2019-02-27T19:34:10.247Z,80.30
2019-02-27T19:36:37.383Z,82.50
2019-02-27T19:39:05.859Z,81.60
2019-02-27T19:41:38.756Z,79.40
2019-02-27T19:44:04.755Z,79.90
2019-02-27T19:46:32.484Z,80.00
2019-02-27T19:49:00.838Z,80.10
2019-02-27T19:51:29.074Z,81.70
2019-02-27T19:53:56.609Z,78.90
2019-02-27T19:56:24.024Z,81.70
2019-02-27T19:58:52.208Z,81.50
2019-02-27T20:01:19.753Z,81.50
2019-02-27T20:03:47.203Z,80.50
2019-02-27T20:06:14.747Z,80.30
2019-02-27T20:08:45.389Z,80.40
2019-02-27T20:11:12.125Z,81.20
2019-02-27T20:13:39.604Z,80.00
2019-02-27T20:16:07.016Z,81.80
2019-02-27T20:18:34.563Z,80.90
2019-02-27T20:21:02.444Z,80.90
2019-02-27T20:23:30.275Z,81.20
2019-02-27T20:25:57.756Z,79.80
2019-02-27T20:28:25.179Z,81.50
2019-02-27T20:30:52.716Z,81.00
2019-02-27T20:33:22.310Z,81.40
2019-02-27T20:35:52.342Z,81.60
2019-02-27T20:38:18.864Z,81.00
2019-02-27T20:40:46.417Z,80.70
2019-02-27T20:43:14.227Z,81.20
2019-02-27T20:45:43.649Z,81.70
2019-02-27T20:48:11.145Z,81.30
2019-02-27T20:50:40.129Z,80.90
2019-02-27T20:53:08.110Z,81.10
2019-02-27T20:55:35.545Z,81.70
2019-02-27T20:58:03.025Z,81.60
2019-02-27T21:00:35.789Z,82.60
2019-02-27T21:03:02.371Z,81.60
2019-02-27T21:05:29.227Z,99.90
2019-02-27T21:08:00.891Z,81.80
2019-02-27T21:10:26.379Z,80.80
2019-02-27T21:12:54.472Z,82.60
2019-02-27T21:15:24.785Z,82.40
2019-02-27T21:17:57.746Z,82.10
2019-02-27T21:20:23.130Z,81.70
2019-02-27T21:22:50.943Z,81.70
2019-02-27T21:25:18.434Z,79.60
2019-02-27T21:27:46.049Z,80.20
2019-02-27T21:30:17.727Z,81.80
2019-02-27T21:32:43.928Z,81.90
2019-02-27T21:35:11.434Z,81.70
2019-02-27T21:37:44.587Z,81.00
2019-02-27T21:40:09.771Z,81.10
2019-02-27T21:42:37.611Z,80.30
2019-02-27T21:45:07.761Z,80.80
2019-02-27T21:47:35.247Z,80.80
2019-02-27T21:50:03.635Z,80.70
2019-02-27T21:52:32.592Z,80.50
2019-02-27T21:55:00.019Z,80.90
2019-02-27T21:57:27.428Z,80.10
2019-02-27T21:59:54.871Z,79.80
2019-02-27T22:02:22.273Z,79.80
2019-02-27T22:04:49.673Z,79.60
2019-02-27T22:07:17.231Z,79.70
2019-02-27T22:09:45.445Z,79.60
2019-02-27T22:12:12.962Z,79.40
2019-02-27T22:14:41.068Z,79.20
2019-02-27T22:17:08.456Z,79.10
2019-02-27T22:19:35.865Z,79.00
2019-02-27T22:22:05.333Z,79.30
2019-02-27T22:24:32.975Z,78.90
2019-02-27T22:27:00.397Z,79.20
2019-02-27T22:29:28.514Z,78.90
2019-02-27T22:31:56.079Z,78.70
2019-02-27T22:34:23.474Z,78.90
2019-02-27T22:36:50.956Z,78.90
2019-02-27T22:39:18.338Z,79.00
2019-02-27T22:41:45.856Z,79.00
2019-02-27T22:44:13.885Z,79.10
2019-02-27T22:46:41.657Z,79.00
2019-02-27T22:49:09.050Z,79.10
2019-02-27T22:51:36.562Z,79.10
2019-02-27T22:54:03.953Z,78.40
2019-02-27T22:56:31.358Z,78.50
2019-02-27T22:58:59.394Z,78.30
2019-02-27T23:01:39.932Z,78.40
2019-02-27T23:04:08.158Z,78.40
2019-02-27T23:06:35.547Z,78.40
2019-02-27T23:09:05.596Z,78.40
2019-02-27T23:11:34.191Z,78.30
2019-02-27T23:14:02.345Z,78.20
2019-02-27T23:16:29.936Z,78.10
2019-02-27T23:18:57.983Z,77.90
2019-02-27T23:21:26.647Z,77.70
2019-02-27T23:23:54.579Z,78.00
2019-02-27T23:26:22.042Z,77.70
2019-02-27T23:28:49.427Z,77.70
2019-02-27T23:31:22.216Z,77.80
2019-02-27T23:33:46.066Z,77.50
2019-02-27T23:36:13.463Z,77.60
2019-02-27T23:38:40.852Z,77.80
2019-02-27T23:41:08.303Z,77.60
2019-02-27T23:43:35.786Z,77.60
2019-02-27T23:46:04.042Z,77.90
2019-02-27T23:48:35.798Z,77.90
2019-02-27T23:51:00.915Z,78.30
2019-02-27T23:53:28.410Z,78.10
2019-02-27T23:55:55.914Z,77.80
2019-02-27T23:58:23.340Z,77.90
